createdAt,value
2023-05-22T00:01:16.460Z,14.63
2023-05-22T00:04:06.790Z,17.10
2023-05-22T00:06:55.631Z,16.05
2023-05-22T00:09:44.432Z,13.98
2023-05-22T00:12:33.221Z,12.18
2023-05-22T00:15:22.076Z,15.75
2023-05-22T00:18:10.885Z,12.52
2023-05-22T00:21:00.996Z,14.40
2023-05-22T00:23:49.752Z,15.40
2023-05-22T00:26:38.530Z,18.38
2023-05-22T00:29:27.231Z,12.35
2023-05-22T00:32:16.044Z,17.75
2023-05-22T00:35:04.965Z,14.63
2023-05-22T00:37:55.064Z,16.80
2023-05-22T00:40:43.556Z,16.38
2023-05-22T00:43:32.471Z,17.92
2023-05-22T00:46:23.009Z,15.98
2023-05-22T00:49:11.930Z,16.58
2023-05-22T00:52:00.770Z,14.55
2023-05-22T00:54:51.620Z,14.52
2023-05-22T00:57:41.998Z,19.98
2023-05-22T01:00:34.108Z,14.43
2023-05-22T01:03:27.315Z,12.38
2023-05-22T01:06:18.674Z,17.05
2023-05-22T01:09:07.171Z,13.75
2023-05-22T01:12:07.280Z,14.60
2023-05-22T01:15:05.059Z,13.50
2023-05-22T01:18:11.280Z,12.27
2023-05-22T01:21:04.847Z,12.40
2023-05-22T01:24:36.091Z,14.35
2023-05-22T01:27:42.265Z,14.20
2023-05-22T01:30:56.989Z,15.52
2023-05-22T01:33:49.397Z,15.00
2023-05-22T01:36:39.299Z,17.10
2023-05-22T01:39:29.877Z,15.65
2023-05-22T01:42:18.834Z,16.40
2023-05-22T01:45:10.047Z,13.00
2023-05-22T01:48:00.292Z,15.45
2023-05-22T01:50:50.043Z,17.58
2023-05-22T01:53:42.939Z,16.98
2023-05-22T01:56:35.493Z,17.25
2023-05-22T01:59:28.067Z,16.52
2023-05-22T02:02:18.803Z,21.55
2023-05-22T02:05:12.004Z,17.95
2023-05-22T02:08:02.578Z,19.30
2023-05-22T02:10:51.963Z,17.83
2023-05-22T02:13:41.480Z,16.90
2023-05-22T02:16:31.070Z,17.55
2023-05-22T02:19:20.090Z,15.10
2023-05-22T02:22:13.769Z,13.98
2023-05-22T02:25:03.131Z,16.90
2023-05-22T02:27:51.917Z,16.42
2023-05-22T02:30:40.877Z,14.75
2023-05-22T02:33:30.067Z,16.05
2023-05-22T02:36:19.006Z,17.58
2023-05-22T02:39:09.985Z,16.00
2023-05-22T02:41:58.839Z,16.05
2023-05-22T02:44:47.585Z,17.52
2023-05-22T02:47:36.342Z,14.38
2023-05-22T02:50:25.141Z,20.27
2023-05-22T02:53:14.424Z,18.95
2023-05-22T02:56:04.580Z,16.17
2023-05-22T02:58:53.368Z,18.65
2023-05-22T03:01:42.134Z,19.48
2023-05-22T03:04:30.862Z,18.90
2023-05-22T03:07:20.275Z,21.48
2023-05-22T03:10:09.434Z,20.33
2023-05-22T03:12:59.523Z,21.40
2023-05-22T03:15:48.257Z,19.83
2023-05-22T03:18:37.392Z,19.20
2023-05-22T03:21:26.142Z,18.13
2023-05-22T03:24:14.895Z,20.80
2023-05-22T03:27:03.680Z,18.48
2023-05-22T03:29:53.858Z,17.20
2023-05-22T03:32:42.679Z,17.27
2023-05-22T03:35:31.486Z,17.27
2023-05-22T03:38:20.261Z,20.88
2023-05-22T03:41:08.976Z,18.20
2023-05-22T03:43:58.073Z,17.20
2023-05-22T03:46:48.219Z,17.10
2023-05-22T03:49:36.985Z,17.20
2023-05-22T03:52:25.760Z,17.02
2023-05-22T03:55:14.815Z,16.55
2023-05-22T03:58:03.620Z,17.67
2023-05-22T04:00:52.537Z,17.08
2023-05-22T04:03:42.724Z,21.33
2023-05-22T04:06:33.374Z,15.88
2023-05-22T04:09:22.179Z,18.67
2023-05-22T04:12:11.133Z,15.82
2023-05-22T04:14:59.889Z,14.93
2023-05-22T04:17:49.955Z,17.50
2023-05-22T04:20:40.549Z,15.48
2023-05-22T04:23:29.534Z,17.88
2023-05-22T04:26:20.729Z,16.13
2023-05-22T04:29:10.515Z,19.92
2023-05-22T04:32:00.312Z,13.85
2023-05-22T04:34:50.518Z,15.32
2023-05-22T04:37:42.361Z,16.00
2023-05-22T04:40:33.447Z,14.95
2023-05-22T04:43:23.480Z,15.63
2023-05-22T04:46:12.234Z,16.77
2023-05-22T04:49:02.331Z,15.70
2023-05-22T04:51:51.225Z,16.60
2023-05-22T04:54:41.475Z,15.80
2023-05-22T04:57:30.251Z,18.25
2023-05-22T05:00:19.391Z,17.42
2023-05-22T05:03:08.636Z,19.63
2023-05-22T05:05:59.527Z,15.15
2023-05-22T05:08:49.807Z,16.98
2023-05-22T05:11:39.934Z,14.70
2023-05-22T05:14:28.625Z,12.38
2023-05-22T05:17:17.455Z,18.58
2023-05-22T05:20:07.535Z,14.57
2023-05-22T05:22:56.337Z,19.10
2023-05-22T05:25:45.045Z,15.82
2023-05-22T05:28:35.241Z,18.92
2023-05-22T05:31:24.143Z,13.05
2023-05-22T05:34:13.570Z,16.52
2023-05-22T05:37:02.820Z,16.00
2023-05-22T05:39:51.624Z,13.18
2023-05-22T05:42:40.362Z,13.15
2023-05-22T05:45:30.296Z,13.48
2023-05-22T05:48:18.733Z,13.75
2023-05-22T05:51:07.301Z,12.63
2023-05-22T05:53:55.996Z,15.77
2023-05-22T05:56:44.570Z,12.73
2023-05-22T05:59:32.984Z,15.85
2023-05-22T06:02:22.962Z,12.55
2023-05-22T06:05:11.696Z,16.63
2023-05-22T06:08:00.259Z,14.77
2023-05-22T06:10:49.011Z,16.15
2023-05-22T06:13:38.048Z,12.77
2023-05-22T06:16:26.707Z,13.95
2023-05-22T06:19:16.646Z,11.75
2023-05-22T06:22:05.616Z,17.00
2023-05-22T06:24:54.908Z,14.82
2023-05-22T06:27:43.691Z,16.02
2023-05-22T06:30:40.230Z,12.93
2023-05-22T06:33:29.104Z,13.52
2023-05-22T06:36:19.296Z,14.90
2023-05-22T06:39:08.777Z,22.08
2023-05-22T06:41:57.504Z,13.60
2023-05-22T06:44:46.223Z,15.95
2023-05-22T06:47:34.986Z,14.38
2023-05-22T06:50:23.930Z,12.82
2023-05-22T06:53:14.001Z,13.95
2023-05-22T06:56:02.490Z,12.38
2023-05-22T06:58:50.974Z,12.88
2023-05-22T07:01:39.765Z,13.68
2023-05-22T07:04:28.373Z,13.93
2023-05-22T07:07:16.857Z,13.85
2023-05-22T07:10:07.969Z,14.73
2023-05-22T07:12:56.701Z,14.23
2023-05-22T07:15:46.383Z,16.13
2023-05-22T07:18:35.024Z,17.42
2023-05-22T07:21:24.742Z,14.65
2023-05-22T07:24:13.621Z,18.52
2023-05-22T07:27:04.482Z,14.15
2023-05-22T07:29:52.997Z,13.95
2023-05-22T07:32:41.516Z,14.80
2023-05-22T07:35:30.108Z,16.83
2023-05-22T07:38:18.671Z,10.68
2023-05-22T07:41:07.193Z,14.00
2023-05-22T07:43:57.384Z,15.00
2023-05-22T07:46:45.983Z,10.00
2023-05-22T07:49:34.608Z,10.90
2023-05-22T07:52:23.935Z,15.15
2023-05-22T07:55:12.795Z,13.88
2023-05-22T07:58:04.264Z,12.20
2023-05-22T08:00:54.566Z,13.70
2023-05-22T08:03:43.294Z,10.98
2023-05-22T08:06:32.034Z,11.18
2023-05-22T08:09:21.575Z,10.38
2023-05-22T08:12:10.784Z,10.70
2023-05-22T08:15:00.140Z,12.18
2023-05-22T08:17:50.352Z,11.38
2023-05-22T08:20:39.368Z,11.60
2023-05-22T08:23:28.339Z,11.63
2023-05-22T08:26:17.381Z,11.88
2023-05-22T08:29:06.297Z,10.77
2023-05-22T08:31:56.923Z,10.27
2023-05-22T08:34:47.995Z,13.98
2023-05-22T08:37:37.180Z,9.75
2023-05-22T08:40:29.353Z,10.68
2023-05-22T08:43:18.120Z,11.75
2023-05-22T08:46:08.843Z,10.00
2023-05-22T08:48:58.750Z,9.23
2023-05-22T08:51:53.776Z,10.30
2023-05-22T08:54:43.632Z,8.13
2023-05-22T08:57:32.865Z,10.90
2023-05-22T09:00:23.490Z,9.15
2023-05-22T09:03:13.978Z,9.43
2023-05-22T09:06:03.344Z,9.35
2023-05-22T09:08:53.392Z,11.43
2023-05-22T09:11:41.918Z,8.95
2023-05-22T09:14:38.828Z,10.10
2023-05-22T09:17:27.925Z,9.35
2023-05-22T09:20:16.793Z,8.95
2023-05-22T09:23:14.366Z,11.68
2023-05-22T09:26:04.766Z,9.73
2023-05-22T09:28:53.243Z,10.30
2023-05-22T09:31:45.270Z,7.47
2023-05-22T09:34:34.106Z,9.27
2023-05-22T09:37:22.619Z,6.63
2023-05-22T09:40:14.101Z,6.80
2023-05-22T09:43:08.407Z,7.43
2023-05-22T09:46:04.320Z,7.13
2023-05-22T09:48:53.209Z,12.63
2023-05-22T09:51:43.005Z,11.35
2023-05-22T09:54:33.822Z,9.05
2023-05-22T09:57:23.139Z,6.65
2023-05-22T10:00:18.342Z,8.63
2023-05-22T10:03:12.169Z,8.63
2023-05-22T10:06:02.488Z,9.40
2023-05-22T10:08:55.615Z,10.18
2023-05-22T10:11:45.145Z,9.52
2023-05-22T10:14:35.581Z,11.48
2023-05-22T10:17:25.992Z,8.40
2023-05-22T10:20:15.230Z,8.57
2023-05-22T10:23:04.984Z,7.47
2023-05-22T10:25:54.172Z,6.68
2023-05-22T10:28:46.264Z,7.32
2023-05-22T10:31:47.095Z,7.05
2023-05-22T10:34:40.782Z,8.13
2023-05-22T10:37:39.201Z,6.95
2023-05-22T10:40:30.313Z,8.75
2023-05-22T10:43:19.205Z,6.88
2023-05-22T10:46:09.286Z,9.02
2023-05-22T10:48:59.276Z,5.35
2023-05-22T10:51:49.646Z,8.38
2023-05-22T10:54:42.446Z,8.35
2023-05-22T10:57:35.444Z,7.30
2023-05-22T11:00:26.268Z,6.80
2023-05-22T11:03:18.406Z,7.93
2023-05-22T11:06:07.827Z,5.93
2023-05-22T11:08:59.097Z,6.18
2023-05-22T11:11:48.121Z,7.22
2023-05-22T11:14:38.141Z,7.18
2023-05-22T11:17:28.973Z,7.30
2023-05-22T11:20:20.982Z,7.07
2023-05-22T11:23:10.182Z,7.40
2023-05-22T11:26:18.891Z,9.00
2023-05-22T11:29:09.532Z,9.10
2023-05-22T11:31:59.049Z,7.40
2023-05-22T11:34:50.126Z,8.50
2023-05-22T11:37:42.350Z,6.65
2023-05-22T11:40:31.194Z,7.97
2023-05-22T11:43:33.307Z,6.75
2023-05-22T11:46:22.117Z,6.90
2023-05-22T11:49:13.238Z,6.25
2023-05-22T11:52:01.793Z,6.22
2023-05-22T11:54:50.640Z,7.25
2023-05-22T11:57:39.759Z,5.55
2023-05-22T12:00:30.285Z,5.97
2023-05-22T12:03:19.368Z,6.72
2023-05-22T12:06:08.759Z,5.47
2023-05-22T12:08:57.279Z,7.00
2023-05-22T12:11:48.648Z,5.38
2023-05-22T12:14:37.188Z,6.95
2023-05-22T12:17:29.641Z,21.98
2023-05-22T12:20:18.488Z,10.73
2023-05-22T12:23:07.283Z,9.45
2023-05-22T12:26:00.037Z,7.47
2023-05-22T12:28:48.876Z,7.03
2023-05-22T12:31:38.733Z,7.07
2023-05-22T12:34:29.106Z,5.68
2023-05-22T12:37:21.499Z,5.55
2023-05-22T12:40:11.102Z,9.05
2023-05-22T12:42:59.912Z,9.43
2023-05-22T12:45:48.763Z,7.38
2023-05-22T12:48:37.438Z,7.25
2023-05-22T12:51:30.210Z,5.38
2023-05-22T12:54:19.134Z,6.30
2023-05-22T12:57:07.846Z,6.72
2023-05-22T12:59:56.580Z,6.32
2023-05-22T13:02:45.405Z,5.32
2023-05-22T13:05:34.172Z,5.70
2023-05-22T13:08:25.448Z,4.95
2023-05-22T13:11:14.248Z,6.30
2023-05-22T13:14:03.043Z,7.07
2023-05-22T13:16:51.789Z,6.50
2023-05-22T13:19:40.602Z,6.95
2023-05-22T13:22:29.424Z,5.78
2023-05-22T13:25:20.059Z,16.50
2023-05-22T13:28:08.807Z,7.93
2023-05-22T13:30:57.669Z,6.70
2023-05-22T13:33:46.810Z,7.10
2023-05-22T13:36:35.669Z,8.00
2023-05-22T13:39:24.454Z,4.57
2023-05-22T13:42:14.575Z,8.18
2023-05-22T13:45:03.398Z,7.50
2023-05-22T13:47:52.209Z,5.78
2023-05-22T13:50:41.349Z,7.72
2023-05-22T13:53:30.087Z,12.68
2023-05-22T13:56:18.939Z,6.45
2023-05-22T13:59:09.433Z,9.82
2023-05-22T14:01:58.386Z,6.78
2023-05-22T14:04:48.550Z,7.10
2023-05-22T14:07:37.507Z,6.82
2023-05-22T14:10:26.258Z,5.97
2023-05-22T14:13:15.261Z,5.15
2023-05-22T14:16:05.611Z,5.97
2023-05-22T14:18:54.381Z,5.20
2023-05-22T14:21:43.324Z,7.47
2023-05-22T14:24:32.151Z,6.30
2023-05-22T14:27:20.972Z,7.07
2023-05-22T14:30:13.445Z,4.68
2023-05-22T14:33:03.615Z,7.88
2023-05-22T14:35:52.730Z,7.20
2023-05-22T14:38:41.433Z,6.88
2023-05-22T14:41:30.242Z,5.57
2023-05-22T14:44:19.396Z,7.30
2023-05-22T14:47:08.291Z,8.02
2023-05-22T14:50:10.186Z,8.35
2023-05-22T14:53:06.762Z,5.53
2023-05-22T14:55:55.594Z,7.82
2023-05-22T14:58:44.421Z,6.30
2023-05-22T15:01:33.281Z,6.43
2023-05-22T15:04:22.753Z,6.15
2023-05-22T15:07:12.966Z,5.45
2023-05-22T15:10:02.289Z,6.80
2023-05-22T15:12:51.113Z,5.80
2023-05-22T15:15:40.057Z,5.90
2023-05-22T15:18:29.047Z,5.70
2023-05-22T15:21:18.018Z,7.43
2023-05-22T15:24:08.365Z,6.75
2023-05-22T15:26:57.218Z,7.07
2023-05-22T15:29:46.041Z,7.53
2023-05-22T15:32:34.967Z,8.70
2023-05-22T15:35:23.811Z,5.72
2023-05-22T15:38:13.243Z,7.80
2023-05-22T15:41:03.514Z,5.50
2023-05-22T15:43:53.224Z,6.50
2023-05-22T15:46:42.015Z,6.50
2023-05-22T15:49:31.510Z,8.48
2023-05-22T15:52:22.561Z,8.80
2023-05-22T15:55:11.546Z,5.00
2023-05-22T15:58:06.063Z,5.38
2023-05-22T16:00:54.551Z,6.55
2023-05-22T16:03:43.171Z,7.85
2023-05-22T16:06:32.688Z,7.40
2023-05-22T16:09:21.233Z,10.23
2023-05-22T16:12:10.536Z,5.55
2023-05-22T16:15:01.481Z,8.10
2023-05-22T16:17:51.049Z,7.55
2023-05-22T16:20:40.464Z,4.93
2023-05-22T16:23:29.080Z,5.10
2023-05-22T16:26:17.872Z,6.20
2023-05-22T16:29:09.162Z,5.38
2023-05-22T16:31:59.250Z,5.63
2023-05-22T16:34:47.925Z,4.38
2023-05-22T16:37:36.682Z,5.30
2023-05-22T16:40:25.183Z,6.18
2023-05-22T16:43:13.982Z,9.52
2023-05-22T16:46:02.791Z,5.57
2023-05-22T16:48:52.984Z,4.82
2023-05-22T16:51:41.713Z,4.68
2023-05-22T16:54:30.493Z,5.32
2023-05-22T16:57:19.326Z,6.20
2023-05-22T17:00:10.979Z,5.22
2023-05-22T17:03:00.480Z,4.30
2023-05-22T17:05:51.360Z,4.97
2023-05-22T17:08:40.185Z,7.68
2023-05-22T17:11:28.986Z,5.95
2023-05-22T17:14:17.717Z,4.80
2023-05-22T17:17:06.960Z,5.13
2023-05-22T17:19:55.701Z,8.15
2023-05-22T17:22:45.812Z,5.88
2023-05-22T17:25:34.534Z,7.55
2023-05-22T17:28:23.284Z,8.13
2023-05-22T17:31:12.017Z,7.30
2023-05-22T17:34:00.765Z,5.47
2023-05-22T17:36:49.481Z,9.15
2023-05-22T17:39:39.672Z,6.97
2023-05-22T17:42:28.456Z,7.30
2023-05-22T17:45:17.257Z,8.23
2023-05-22T17:48:06.209Z,7.40
2023-05-22T17:50:55.090Z,6.20
2023-05-22T17:53:43.825Z,7.32
2023-05-22T17:56:33.720Z,6.57
2023-05-22T17:59:22.198Z,4.90
2023-05-22T18:02:10.796Z,9.57
2023-05-22T18:04:59.272Z,7.28
2023-05-22T18:07:47.762Z,7.25
2023-05-22T18:10:36.258Z,7.97
2023-05-22T18:13:26.121Z,9.93
2023-05-22T18:16:14.586Z,9.85
2023-05-22T18:19:03.793Z,8.30
2023-05-22T18:21:53.610Z,6.88
2023-05-22T18:24:42.396Z,6.72
2023-05-22T18:27:31.357Z,5.80
2023-05-22T18:30:21.493Z,7.07
2023-05-22T18:33:10.229Z,5.80
2023-05-22T18:36:00.302Z,7.50
2023-05-22T18:38:49.184Z,13.60
2023-05-22T18:41:38.563Z,11.70
2023-05-22T18:44:27.292Z,5.75
2023-05-22T18:47:17.514Z,6.75
2023-05-22T18:50:06.454Z,7.53
2023-05-22T18:52:55.318Z,7.00
2023-05-22T18:55:44.109Z,9.10
2023-05-22T18:58:32.888Z,7.57
2023-05-22T19:01:21.712Z,9.63
2023-05-22T19:04:11.663Z,7.95
2023-05-22T19:07:00.339Z,7.10
2023-05-22T19:09:49.667Z,7.47
2023-05-22T19:12:38.335Z,8.27
2023-05-22T19:15:26.824Z,6.50
2023-05-22T19:18:15.360Z,8.32
2023-05-22T19:21:05.708Z,9.70
2023-05-22T19:23:54.203Z,7.00
2023-05-22T19:26:42.877Z,6.35
2023-05-22T19:29:31.432Z,6.05
2023-05-22T19:32:19.887Z,7.90
2023-05-22T19:35:09.363Z,10.60
2023-05-22T19:37:59.136Z,7.82
2023-05-22T19:40:47.961Z,10.73
2023-05-22T19:43:36.662Z,7.93
2023-05-22T19:46:25.213Z,7.10
2023-05-22T19:49:13.718Z,7.53
2023-05-22T19:52:02.520Z,6.40
2023-05-22T19:54:52.651Z,11.32
2023-05-22T19:57:44.310Z,12.48
2023-05-22T20:00:33.507Z,11.25
2023-05-22T20:03:23.271Z,9.07
2023-05-22T20:06:12.498Z,13.30
2023-05-22T20:09:01.710Z,12.23
2023-05-22T20:11:51.835Z,11.27
2023-05-22T20:14:40.592Z,11.38
2023-05-22T20:17:29.386Z,12.02
2023-05-22T20:20:18.304Z,14.77
2023-05-22T20:23:07.015Z,14.98
2023-05-22T20:25:55.754Z,12.52
2023-05-22T20:28:45.815Z,11.32
2023-05-22T20:31:34.859Z,12.68
2023-05-22T20:34:26.663Z,12.85
2023-05-22T20:37:15.661Z,11.50
2023-05-22T20:40:09.500Z,12.65
2023-05-22T20:42:58.167Z,15.65
2023-05-22T20:45:48.344Z,13.18
2023-05-22T20:48:36.942Z,12.32
2023-05-22T20:51:31.579Z,12.05
2023-05-22T20:54:20.390Z,13.75
2023-05-22T20:57:08.956Z,13.10
2023-05-22T20:59:58.277Z,11.88
2023-05-22T21:02:48.498Z,13.85
2023-05-22T21:05:37.262Z,15.77
2023-05-22T21:08:25.773Z,11.73
2023-05-22T21:11:14.275Z,13.45
2023-05-22T21:14:02.755Z,10.48
2023-05-22T21:16:51.248Z,11.07
2023-05-22T21:19:41.114Z,12.35
2023-05-22T21:22:29.611Z,12.05
2023-05-22T21:25:18.093Z,9.50
2023-05-22T21:28:07.696Z,10.70
2023-05-22T21:30:56.258Z,13.70
2023-05-22T21:33:44.965Z,18.80
2023-05-22T21:36:35.092Z,16.92
2023-05-22T21:39:23.969Z,11.15
2023-05-22T21:42:12.643Z,17.25
2023-05-22T21:45:01.573Z,11.55
2023-05-22T21:47:50.381Z,14.70
2023-05-22T21:50:39.655Z,14.05
2023-05-22T21:53:29.968Z,10.82
2023-05-22T21:56:18.930Z,12.77
2023-05-22T21:59:07.768Z,12.63
2023-05-22T22:01:56.575Z,13.35
2023-05-22T22:04:45.529Z,15.88
2023-05-22T22:07:34.529Z,12.25
2023-05-22T22:10:24.701Z,11.95
2023-05-22T22:13:13.488Z,11.35
2023-05-22T22:16:02.261Z,15.02
2023-05-22T22:18:51.365Z,14.95
2023-05-22T22:21:41.354Z,11.68
2023-05-22T22:24:30.194Z,11.70
2023-05-22T22:27:20.868Z,15.80
2023-05-22T22:30:10.392Z,16.13
2023-05-22T22:32:59.184Z,13.85
2023-05-22T22:35:47.917Z,14.15
2023-05-22T22:38:38.524Z,10.43
2023-05-22T22:41:27.435Z,12.52
2023-05-22T22:44:17.607Z,13.38
2023-05-22T22:47:07.721Z,15.27
2023-05-22T22:49:57.961Z,11.80
2023-05-22T22:52:46.719Z,11.57
2023-05-22T22:55:35.796Z,12.02
2023-05-22T22:58:24.746Z,15.27
2023-05-22T23:01:14.956Z,15.98
2023-05-22T23:04:03.755Z,12.40
2023-05-22T23:06:52.669Z,12.30
2023-05-22T23:09:41.446Z,14.48
2023-05-22T23:12:32.818Z,14.13
2023-05-22T23:15:21.813Z,11.02
2023-05-22T23:18:13.504Z,11.15
2023-05-22T23:21:02.392Z,12.75
2023-05-22T23:23:51.133Z,16.92
2023-05-22T23:26:39.900Z,13.52
2023-05-22T23:29:28.677Z,14.75
2023-05-22T23:32:17.398Z,14.27
2023-05-22T23:35:09.592Z,15.52
2023-05-22T23:37:58.418Z,14.35
2023-05-22T23:40:47.169Z,15.10
2023-05-22T23:43:36.030Z,20.30
2023-05-22T23:46:24.876Z,11.88
2023-05-22T23:49:15.386Z,11.88
2023-05-22T23:52:05.676Z,10.93
2023-05-22T23:54:54.447Z,16.85
2023-05-22T23:57:43.169Z,13.82
